Time;durP1;ratioP1;P1;durP2;ratioP2;P2;SDS_P1;SDS_P2;PMS_P1;PMS_P2;Temp;Humidity;BMP_temperature;BMP_pressure;BME280_temperature;BME280_humidity;BME280_pressure;Samples;Min_cycle;Max_cycle;Signal;HPM_P1;HPM_P2
2023/04/23 00:01:05;;;;;;;0.10;0.10;;;;;;;;;;5018795;28;20160;-78
2023/04/23 00:03:51;;;;;;;0.10;0.10;;;;;;;;;;5019689;28;20204;-78
2023/04/23 00:06:38;;;;;;;0.10;0.10;;;;;;;;;;5017837;28;20033;-77
2023/04/23 00:09:25;;;;;;;0.10;0.10;;;;;;;;;;5008622;28;20064;-78
2023/04/23 00:12:11;;;;;;;0.10;0.10;;;;;;;;;;5016554;28;20037;-76
2023/04/23 00:14:57;;;;;;;0.10;0.10;;;;;;;;;;5005594;28;20658;-77
2023/04/23 00:17:42;;;;;;;0.10;0.10;;;;;;;;;;5018590;28;20045;-77
2023/04/23 00:20:28;;;;;;;0.10;0.10;;;;;;;;;;5017862;28;20863;-77
2023/04/23 00:23:14;;;;;;;0.10;0.10;;;;;;;;;;5017314;28;20553;-78
2023/04/23 00:26:00;;;;;;;0.13;0.13;;;;;;;;;;5020456;28;20061;-76
2023/04/23 00:28:45;;;;;;;0.10;0.10;;;;;;;;;;5019199;28;20545;-75
2023/04/23 00:31:31;;;;;;;0.10;0.10;;;;;;;;;;5017842;28;20454;-76
2023/04/23 00:34:19;;;;;;;0.10;0.10;;;;;;;;;;5018004;28;20362;-75
2023/04/23 00:37:06;;;;;;;0.10;0.10;;;;;;;;;;5004694;28;20625;-76
2023/04/23 00:39:52;;;;;;;0.10;0.10;;;;;;;;;;5017775;28;20481;-77
2023/04/23 00:42:38;;;;;;;0.10;0.10;;;;;;;;;;5016271;28;20081;-77
2023/04/23 00:45:24;;;;;;;0.10;0.10;;;;;;;;;;5017427;28;20413;-76
2023/04/23 00:48:10;;;;;;;0.10;0.10;;;;;;;;;;5018288;28;20042;-79
2023/04/23 00:51:02;;;;;;;0.10;0.10;;;;;;;;;;5017326;28;20523;-77
2023/04/23 00:53:48;;;;;;;0.10;0.10;;;;;;;;;;5029855;28;20049;-78
2023/04/23 00:56:34;;;;;;;0.10;0.10;;;;;;;;;;5018579;28;20500;-80
2023/04/23 00:59:20;;;;;;;0.10;0.10;;;;;;;;;;5017701;28;20065;-78
2023/04/23 01:02:06;;;;;;;0.10;0.10;;;;;;;;;;5018811;28;20053;-79
2023/04/23 01:04:51;;;;;;;0.10;0.10;;;;;;;;;;5024286;28;20496;-78
2023/04/23 01:07:37;;;;;;;0.10;0.10;;;;;;;;;;5020824;28;20025;-79
2023/04/23 01:10:23;;;;;;;0.10;0.10;;;;;;;;;;5014649;28;20063;-79
2023/04/23 01:13:10;;;;;;;0.10;0.10;;;;;;;;;;5020316;28;20041;-79
2023/04/23 01:15:56;;;;;;;0.10;0.10;;;;;;;;;;5023261;28;20482;-79
2023/04/23 01:18:45;;;;;;;0.10;0.10;;;;;;;;;;5022818;28;20045;-77
2023/04/23 01:21:32;;;;;;;0.10;0.10;;;;;;;;;;5020613;28;20739;-78
2023/04/23 01:24:18;;;;;;;0.10;0.10;;;;;;;;;;5021651;28;20029;-78
2023/04/23 01:27:05;;;;;;;0.10;0.10;;;;;;;;;;5020591;28;20039;-79
2023/04/23 01:29:50;;;;;;;0.10;0.10;;;;;;;;;;5021455;28;20033;-79
2023/04/23 01:32:38;;;;;;;0.10;0.10;;;;;;;;;;5020194;28;20094;-77
2023/04/23 01:35:24;;;;;;;0.10;0.10;;;;;;;;;;5034732;28;20635;-77
2023/04/23 01:38:10;;;;;;;0.10;0.10;;;;;;;;;;5022085;28;20079;-78
2023/04/23 01:40:56;;;;;;;0.10;0.10;;;;;;;;;;5022749;28;20040;-78
2023/04/23 01:43:42;;;;;;;0.10;0.10;;;;;;;;;;5021960;28;20044;-79
2023/04/23 01:46:28;;;;;;;0.10;0.10;;;;;;;;;;5019435;28;20589;-79
2023/04/23 01:49:15;;;;;;;0.10;0.10;;;;;;;;;;5032785;28;20513;-77
2023/04/23 01:52:00;;;;;;;0.10;0.10;;;;;;;;;;5019650;28;20041;-79
2023/04/23 01:54:47;;;;;;;0.10;0.10;;;;;;;;;;5031931;28;20029;-78
2023/04/23 01:57:32;;;;;;;0.10;0.10;;;;;;;;;;5018678;28;20533;-79
2023/04/23 02:00:19;;;;;;;0.10;0.10;;;;;;;;;;5034695;28;20041;-74
2023/04/23 02:03:05;;;;;;;0.10;0.10;;;;;;;;;;5001091;28;20096;-74
2023/04/23 02:05:52;;;;;;;0.10;0.10;;;;;;;;;;5022223;28;20096;-75
2023/04/23 02:08:38;;;;;;;0.10;0.10;;;;;;;;;;5020551;28;20104;-74
2023/04/23 02:11:24;;;;;;;0.10;0.10;;;;;;;;;;5033016;28;20053;-78
2023/04/23 02:14:12;;;;;;;0.10;0.10;;;;;;;;;;5009403;28;20037;-76
2023/04/23 02:16:59;;;;;;;0.10;0.10;;;;;;;;;;5008952;28;20045;-75
2023/04/23 02:19:44;;;;;;;0.10;0.10;;;;;;;;;;5007157;28;20033;-75
2023/04/23 02:22:30;;;;;;;0.10;0.10;;;;;;;;;;5021264;28;20329;-78
2023/04/23 02:25:17;;;;;;;0.10;0.10;;;;;;;;;;5007697;28;20046;-77
2023/04/23 02:28:06;;;;;;;0.10;0.10;;;;;;;;;;5011740;28;20036;-77
2023/04/23 02:30:51;;;;;;;0.10;0.10;;;;;;;;;;5020483;28;20561;-77
2023/04/23 02:33:37;;;;;;;0.10;0.10;;;;;;;;;;5023480;28;20458;-76
2023/04/23 02:36:23;;;;;;;0.10;0.10;;;;;;;;;;5019014;28;20046;-77
2023/04/23 02:39:09;;;;;;;0.10;0.10;;;;;;;;;;5021907;28;20040;-78
2023/04/23 02:41:55;;;;;;;0.10;0.10;;;;;;;;;;5031996;28;20037;-77
2023/04/23 02:44:41;;;;;;;0.10;0.10;;;;;;;;;;5016520;28;20116;-76
2023/04/23 02:47:27;;;;;;;0.10;0.10;;;;;;;;;;5020307;28;20425;-78
2023/04/23 02:50:12;;;;;;;0.10;0.10;;;;;;;;;;5018716;28;20324;-78
2023/04/23 02:52:58;;;;;;;0.10;0.10;;;;;;;;;;5012985;28;20120;-76
2023/04/23 02:55:44;;;;;;;0.10;0.10;;;;;;;;;;5014660;28;20199;-77
2023/04/23 02:58:30;;;;;;;0.10;0.10;;;;;;;;;;5030005;28;20641;-78
2023/04/23 03:01:17;;;;;;;0.10;0.10;;;;;;;;;;5010322;28;20052;-76
2023/04/23 03:04:04;;;;;;;0.10;0.10;;;;;;;;;;5031986;28;20041;-78
2023/04/23 03:06:50;;;;;;;0.10;0.10;;;;;;;;;;5017773;28;20421;-77
2023/04/23 03:09:35;;;;;;;0.10;0.10;;;;;;;;;;5018577;28;20049;-78
2023/04/23 03:12:21;;;;;;;0.10;0.10;;;;;;;;;;5019158;28;20041;-77
2023/04/23 03:15:07;;;;;;;0.10;0.10;;;;;;;;;;5011573;28;20316;-75
2023/04/23 03:17:55;;;;;;;0.15;0.15;;;;;;;;;;5031191;28;20410;-78
2023/04/23 03:20:41;;;;;;;0.10;0.10;;;;;;;;;;5008034;28;20834;-78
2023/04/23 03:23:27;;;;;;;0.10;0.10;;;;;;;;;;5030639;28;20174;-76
2023/04/23 03:26:12;;;;;;;0.10;0.10;;;;;;;;;;5031793;28;20068;-77
2023/04/23 03:28:58;;;;;;;0.10;0.10;;;;;;;;;;5000234;28;20029;-78
2023/04/23 03:31:44;;;;;;;0.17;0.17;;;;;;;;;;5007693;28;20674;-75
2023/04/23 03:34:30;;;;;;;0.10;0.10;;;;;;;;;;5017096;28;20166;-78
2023/04/23 03:37:16;;;;;;;0.10;0.10;;;;;;;;;;5007098;28;20347;-78
2023/04/23 03:40:06;;;;;;;0.20;0.20;;;;;;;;;;5019508;28;20183;-78
2023/04/23 03:42:53;;;;;;;0.10;0.10;;;;;;;;;;5007729;28;20143;-77
2023/04/23 03:45:45;;;;;;;0.10;0.10;;;;;;;;;;5019628;28;20306;-77
2023/04/23 03:48:31;;;;;;;0.10;0.10;;;;;;;;;;5016883;28;20247;-79
2023/04/23 03:51:19;;;;;;;0.10;0.10;;;;;;;;;;5008367;28;20088;-78
2023/04/23 03:54:07;;;;;;;0.10;0.10;;;;;;;;;;5006023;28;20155;-77
2023/04/23 03:56:56;;;;;;;0.10;0.10;;;;;;;;;;5030459;28;20470;-77
2023/04/23 03:59:46;;;;;;;0.10;0.10;;;;;;;;;;5005438;28;20401;-76
2023/04/23 04:02:33;;;;;;;0.10;0.10;;;;;;;;;;5007194;28;20443;-78
2023/04/23 04:05:19;;;;;;;0.13;0.13;;;;;;;;;;5008975;28;20033;-76
2023/04/23 04:08:05;;;;;;;0.10;0.10;;;;;;;;;;5006976;28;20040;-78
2023/04/23 04:10:50;;;;;;;0.10;0.10;;;;;;;;;;5021521;28;20111;-76
2023/04/23 04:13:36;;;;;;;0.10;0.10;;;;;;;;;;5009459;28;20124;-75
2023/04/23 04:16:22;;;;;;;0.10;0.10;;;;;;;;;;5019637;28;20096;-76
2023/04/23 04:19:07;;;;;;;0.10;0.10;;;;;;;;;;5019674;28;20036;-75
2023/04/23 04:21:53;;;;;;;0.10;0.10;;;;;;;;;;5019201;28;20076;-75
2023/04/23 04:24:40;;;;;;;0.10;0.10;;;;;;;;;;5008408;28;20084;-76
2023/04/23 04:27:26;;;;;;;0.00;0.00;;;;;;;;;;5019927;28;20336;-75
2023/04/23 04:30:12;;;;;;;0.10;0.10;;;;;;;;;;5020351;28;20630;-76
2023/04/23 04:32:58;;;;;;;0.10;0.10;;;;;;;;;;5018101;28;20084;-76
2023/04/23 04:35:44;;;;;;;0.10;0.10;;;;;;;;;;5018861;28;20025;-78
2023/04/23 04:38:30;;;;;;;0.10;0.10;;;;;;;;;;5018081;28;20025;-76
2023/04/23 04:41:18;;;;;;;0.10;0.10;;;;;;;;;;5020542;28;20423;-77
2023/04/23 04:44:04;;;;;;;0.10;0.10;;;;;;;;;;5018754;28;20425;-78
2023/04/23 04:46:50;;;;;;;0.10;0.10;;;;;;;;;;5018716;28;20033;-77
2023/04/23 04:49:35;;;;;;;0.10;0.10;;;;;;;;;;5018714;28;20029;-78
2023/04/23 04:52:22;;;;;;;0.10;0.10;;;;;;;;;;5020431;28;20234;-77
2023/04/23 04:55:08;;;;;;;0.10;0.10;;;;;;;;;;5020431;28;20450;-76
2023/04/23 04:57:54;;;;;;;0.10;0.10;;;;;;;;;;5018715;28;20041;-77
2023/04/23 05:00:40;;;;;;;0.10;0.10;;;;;;;;;;5017088;28;20542;-76
2023/04/23 05:03:26;;;;;;;0.10;0.10;;;;;;;;;;5019200;28;20033;-78
2023/04/23 05:06:11;;;;;;;0.10;0.10;;;;;;;;;;5028566;28;20040;-78
2023/04/23 05:08:57;;;;;;;0.10;0.10;;;;;;;;;;5020178;28;20529;-76
2023/04/23 05:11:43;;;;;;;0.10;0.10;;;;;;;;;;5004151;28;20032;-78
2023/04/23 05:14:31;;;;;;;0.10;0.10;;;;;;;;;;5017648;28;20799;-76
2023/04/23 05:17:16;;;;;;;0.10;0.10;;;;;;;;;;5019908;28;20131;-76
2023/04/23 05:20:02;;;;;;;0.10;0.10;;;;;;;;;;5019241;28;20250;-75
2023/04/23 05:22:49;;;;;;;0.10;0.10;;;;;;;;;;5017783;28;20029;-76
2023/04/23 05:25:35;;;;;;;0.10;0.10;;;;;;;;;;5021550;28;20025;-77
2023/04/23 05:28:20;;;;;;;0.10;0.10;;;;;;;;;;5020396;28;20581;-78
2023/04/23 05:31:06;;;;;;;0.10;0.10;;;;;;;;;;5014367;28;20127;-76
2023/04/23 05:33:52;;;;;;;0.10;0.10;;;;;;;;;;5017899;28;20033;-77
2023/04/23 05:36:38;;;;;;;0.10;0.10;;;;;;;;;;5016955;28;20528;-76
2023/04/23 05:39:25;;;;;;;0.10;0.10;;;;;;;;;;5029477;28;20041;-76
2023/04/23 05:42:11;;;;;;;0.10;0.10;;;;;;;;;;5016202;28;20868;-77
2023/04/23 05:44:57;;;;;;;0.10;0.10;;;;;;;;;;5018253;28;20079;-76
2023/04/23 05:47:43;;;;;;;0.10;0.10;;;;;;;;;;5019240;28;20274;-77
2023/04/23 05:50:29;;;;;;;0.10;0.10;;;;;;;;;;5022709;28;20147;-76
2023/04/23 05:53:14;;;;;;;0.10;0.10;;;;;;;;;;5020650;28;20029;-76
2023/04/23 05:56:00;;;;;;;0.10;0.10;;;;;;;;;;5021274;28;20537;-76
2023/04/23 05:58:46;;;;;;;0.10;0.10;;;;;;;;;;5020130;28;20650;-76
2023/04/23 06:01:31;;;;;;;0.10;0.10;;;;;;;;;;5016882;28;20131;-77
2023/04/23 06:04:17;;;;;;;0.10;0.10;;;;;;;;;;5021878;28;20569;-77
2023/04/23 06:07:03;;;;;;;0.10;0.10;;;;;;;;;;5019682;28;20049;-78
2023/04/23 06:09:51;;;;;;;0.10;0.10;;;;;;;;;;5022599;28;20116;-76
2023/04/23 06:12:38;;;;;;;0.20;0.20;;;;;;;;;;5017925;28;20038;-77
2023/04/23 06:15:25;;;;;;;0.10;0.10;;;;;;;;;;5011973;28;20044;-78
2023/04/23 06:18:12;;;;;;;0.10;0.10;;;;;;;;;;5020055;28;20036;-79
2023/04/23 06:20:57;;;;;;;0.10;0.10;;;;;;;;;;5019690;28;20045;-79
2023/04/23 06:23:43;;;;;;;0.10;0.10;;;;;;;;;;5022427;28;20051;-77
2023/04/23 06:26:30;;;;;;;0.10;0.10;;;;;;;;;;5023165;28;20409;-78
2023/04/23 06:29:21;;;;;;;0.10;0.10;;;;;;;;;;5013328;28;20611;-77
2023/04/23 06:32:11;;;;;;;0.10;0.10;;;;;;;;;;5017443;28;20494;-77
2023/04/23 06:34:57;;;;;;;0.10;0.10;;;;;;;;;;5017880;28;20054;-79
2023/04/23 06:37:43;;;;;;;0.10;0.10;;;;;;;;;;5018534;28;20095;-77
2023/04/23 06:40:29;;;;;;;0.10;0.10;;;;;;;;;;5019095;28;20152;-76
2023/04/23 06:43:14;;;;;;;0.10;0.10;;;;;;;;;;5017924;28;20045;-77
2023/04/23 06:46:27;;;;;;;0.10;0.10;;;;;;;;;;5016532;28;20552;-78
2023/04/23 06:49:13;;;;;;;0.10;0.10;;;;;;;;;;5018153;28;20529;-76
2023/04/23 06:51:58;;;;;;;0.10;0.10;;;;;;;;;;5018960;28;20045;-78
2023/04/23 06:54:44;;;;;;;0.10;0.10;;;;;;;;;;5021858;28;20522;-76
2023/04/23 06:57:30;;;;;;;0.10;0.10;;;;;;;;;;5016315;28;20122;-77
2023/04/23 07:00:18;;;;;;;0.13;0.13;;;;;;;;;;5016884;28;20494;-78
2023/04/23 07:03:05;;;;;;;0.10;0.10;;;;;;;;;;5008284;28;20063;-79
2023/04/23 07:05:51;;;;;;;0.10;0.10;;;;;;;;;;5019894;28;20029;-77
2023/04/23 07:08:38;;;;;;;0.15;0.15;;;;;;;;;;5020131;28;20473;-77
2023/04/23 07:11:26;;;;;;;0.10;0.10;;;;;;;;;;5016581;28;20041;-79
2023/04/23 07:14:12;;;;;;;0.10;0.10;;;;;;;;;;5021723;28;20386;-78
2023/04/23 07:16:58;;;;;;;0.10;0.10;;;;;;;;;;5020579;28;20067;-79
2023/04/23 07:19:43;;;;;;;0.10;0.10;;;;;;;;;;5019914;28;20037;-78
2023/04/23 07:22:29;;;;;;;0.10;0.10;;;;;;;;;;5018054;28;20506;-76
2023/04/23 07:25:15;;;;;;;0.13;0.13;;;;;;;;;;5018611;28;20445;-76
2023/04/23 07:28:00;;;;;;;0.10;0.10;;;;;;;;;;5018962;28;20953;-75
2023/04/23 07:30:46;;;;;;;0.20;0.20;;;;;;;;;;5017384;28;20133;-77
2023/04/23 07:33:32;;;;;;;0.10;0.10;;;;;;;;;;5022249;28;20416;-77
2023/04/23 07:36:20;;;;;;;0.10;0.10;;;;;;;;;;5006995;28;20033;-77
2023/04/23 07:39:06;;;;;;;0.15;0.15;;;;;;;;;;5018231;28;20036;-76
2023/04/23 07:41:51;;;;;;;0.17;0.17;;;;;;;;;;5020616;28;20664;-79
2023/04/23 07:44:37;;;;;;;0.10;0.10;;;;;;;;;;5008075;28;20655;-76
2023/04/23 07:47:23;;;;;;;0.10;0.10;;;;;;;;;;5019370;28;20479;-75
2023/04/23 07:50:09;;;;;;;0.10;0.10;;;;;;;;;;5018159;28;20033;-75
2023/04/23 07:52:54;;;;;;;0.15;0.15;;;;;;;;;;5018913;28;20193;-78
2023/04/23 07:55:40;;;;;;;0.20;0.20;;;;;;;;;;5018475;28;20069;-76
2023/04/23 07:58:26;;;;;;;0.10;0.10;;;;;;;;;;5018536;28;20501;-78
2023/04/23 08:01:12;;;;;;;0.10;0.10;;;;;;;;;;5015788;28;20053;-78
2023/04/23 08:03:59;;;;;;;0.13;0.13;;;;;;;;;;5017938;28;20123;-75
2023/04/23 08:06:45;;;;;;;0.10;0.10;;;;;;;;;;5016180;28;20063;-76
2023/04/23 08:09:31;;;;;;;0.10;0.10;;;;;;;;;;5017828;28;20057;-79
2023/04/23 08:12:18;;;;;;;0.10;0.10;;;;;;;;;;5018246;28;20052;-79
2023/04/23 08:15:03;;;;;;;0.10;0.10;;;;;;;;;;5018378;28;20061;-77
2023/04/23 08:17:57;;;;;;;0.10;0.10;;;;;;;;;;5029740;28;20353;-79
2023/04/23 08:20:42;;;;;;;0.20;0.20;;;;;;;;;;5018264;28;20036;-78
2023/04/23 08:23:28;;;;;;;0.10;0.10;;;;;;;;;;5004822;28;20319;-78
2023/04/23 08:26:14;;;;;;;0.10;0.10;;;;;;;;;;5004969;28;20736;-78
2023/04/23 08:29:00;;;;;;;0.10;0.10;;;;;;;;;;5018167;28;20437;-76
2023/04/23 08:31:45;;;;;;;0.10;0.10;;;;;;;;;;5018277;28;20120;-77
2023/04/23 08:34:31;;;;;;;0.10;0.10;;;;;;;;;;5018263;28;20032;-75
2023/04/23 08:37:17;;;;;;;0.10;0.10;;;;;;;;;;5017603;28;20145;-78
2023/04/23 08:40:03;;;;;;;0.15;0.15;;;;;;;;;;5019895;28;20049;-76
2023/04/23 08:42:55;;;;;;;0.10;0.10;;;;;;;;;;5015572;28;20549;-76
2023/04/23 08:45:43;;;;;;;0.10;0.10;;;;;;;;;;5017299;28;20320;-79
2023/04/23 08:48:29;;;;;;;0.10;0.10;;;;;;;;;;5018751;28;20025;-78
2023/04/23 08:51:17;;;;;;;0.10;0.10;;;;;;;;;;5004844;28;20260;-79
2023/04/23 08:54:04;;;;;;;0.10;0.10;;;;;;;;;;5005839;28;20063;-78
2023/04/23 08:56:50;;;;;;;0.10;0.10;;;;;;;;;;5008991;28;20102;-78
2023/04/23 08:59:38;;;;;;;0.10;0.10;;;;;;;;;;5017213;28;20083;-76
2023/04/23 09:02:23;;;;;;;0.15;0.15;;;;;;;;;;5017837;28;20037;-78
2023/04/23 09:05:09;;;;;;;0.10;0.10;;;;;;;;;;5019864;28;20374;-80
2023/04/23 09:07:56;;;;;;;0.10;0.10;;;;;;;;;;5008535;28;20579;-79
2023/04/23 09:10:42;;;;;;;0.10;0.10;;;;;;;;;;5018183;28;20033;-78
2023/04/23 09:13:32;;;;;;;0.10;0.10;;;;;;;;;;5017274;28;20496;-75
2023/04/23 09:16:18;;;;;;;0.10;0.10;;;;;;;;;;5016475;28;20245;-78
2023/04/23 09:19:04;;;;;;;0.10;0.10;;;;;;;;;;5018961;28;20044;-77
2023/04/23 09:21:50;;;;;;;0.10;0.10;;;;;;;;;;5020728;28;20653;-78
2023/04/23 09:24:35;;;;;;;0.10;0.10;;;;;;;;;;5031827;28;20422;-77
2023/04/23 09:27:23;;;;;;;0.13;0.13;;;;;;;;;;5021340;28;20434;-79
2023/04/23 09:30:09;;;;;;;0.13;0.13;;;;;;;;;;5020185;28;20061;-75
2023/04/23 09:32:55;;;;;;;0.15;0.10;;;;;;;;;;5022392;28;20474;-77
2023/04/23 09:35:42;;;;;;;0.10;0.10;;;;;;;;;;5021234;28;20489;-80
2023/04/23 09:38:36;;;;;;;0.13;0.13;;;;;;;;;;5022830;28;20048;-77
2023/04/23 09:41:25;;;;;;;0.13;0.13;;;;;;;;;;5018688;28;20034;-80
2023/04/23 09:44:12;;;;;;;0.10;0.10;;;;;;;;;;5020697;28;20756;-79
2023/04/23 09:47:13;;;;;;;0.20;0.20;;;;;;;;;;5021847;28;20056;-79
2023/04/23 09:49:59;;;;;;;0.10;0.10;;;;;;;;;;5021127;28;20306;-78
2023/04/23 09:52:52;;;;;;;0.20;0.20;;;;;;;;;;5016514;28;20057;-77
2023/04/23 09:55:39;;;;;;;0.10;0.10;;;;;;;;;;5019343;28;20037;-77
2023/04/23 09:58:25;;;;;;;0.10;0.10;;;;;;;;;;5007526;28;20038;-77
2023/04/23 10:01:14;;;;;;;0.10;0.10;;;;;;;;;;5021266;28;20072;-80
2023/04/23 10:04:00;;;;;;;0.10;0.10;;;;;;;;;;5014507;28;20033;-78
2023/04/23 10:06:47;;;;;;;0.10;0.10;;;;;;;;;;5010951;28;20160;-78
2023/04/23 10:09:33;;;;;;;0.20;0.20;;;;;;;;;;5021188;28;20034;-77
2023/04/23 10:12:19;;;;;;;0.10;0.10;;;;;;;;;;5020426;28;20040;-79
2023/04/23 10:15:06;;;;;;;0.15;0.15;;;;;;;;;;5034208;28;20033;-80
2023/04/23 10:17:52;;;;;;;0.10;0.10;;;;;;;;;;5020337;28;20034;-80
2023/04/23 10:20:39;;;;;;;0.10;0.10;;;;;;;;;;5021325;28;20517;-77
2023/04/23 10:26:12;;;;;;;0.10;0.10;;;;;;;;;;5106554;23;20495;-77
2023/04/23 10:28:59;;;;;;;0.15;0.15;;;;;;;;;;4968030;28;20080;-74
2023/04/23 10:31:46;;;;;;;0.10;0.10;;;;;;;;;;4967190;28;20034;-76
2023/04/23 10:34:32;;;;;;;0.10;0.10;;;;;;;;;;4954157;28;20400;-79
2023/04/23 10:37:18;;;;;;;0.10;0.10;;;;;;;;;;4965818;28;20548;-77
2023/04/23 10:40:06;;;;;;;0.10;0.10;;;;;;;;;;4957592;28;20130;-76
2023/04/23 10:42:52;;;;;;;0.10;0.10;;;;;;;;;;4968583;28;20042;-78
2023/04/23 10:45:38;;;;;;;0.15;0.15;;;;;;;;;;4967767;28;20128;-75
2023/04/23 10:48:26;;;;;;;0.20;0.20;;;;;;;;;;4965942;28;20050;-76
2023/04/23 10:51:12;;;;;;;0.10;0.10;;;;;;;;;;4966626;28;20138;-77
2023/04/23 10:53:57;;;;;;;0.10;0.10;;;;;;;;;;4964669;28;20432;-77
2023/04/23 10:56:43;;;;;;;0.10;0.10;;;;;;;;;;4964586;28;20038;-76
2023/04/23 10:59:30;;;;;;;0.10;0.10;;;;;;;;;;4968752;28;20038;-76
2023/04/23 11:02:17;;;;;;;0.20;0.20;;;;;;;;;;4964265;28;20035;-79
2023/04/23 11:05:07;;;;;;;0.13;0.13;;;;;;;;;;4965386;28;20131;-79
2023/04/23 11:08:01;;;;;;;0.20;0.20;;;;;;;;;;4951125;28;20214;-77
2023/04/23 11:10:57;;;;;;;0.10;0.10;;;;;;;;;;4965677;28;20655;-75
2023/04/23 11:13:54;;;;;;;0.03;0.03;;;;;;;;;;4965910;28;20113;-77
2023/04/23 11:16:40;;;;;;;0.13;0.13;;;;;;;;;;4964764;28;20035;-79
2023/04/23 11:19:26;;;;;;;0.10;0.10;;;;;;;;;;4954922;28;20038;-78
2023/04/23 11:22:19;;;;;;;0.10;0.10;;;;;;;;;;4956891;28;20049;-75
2023/04/23 11:25:12;;;;;;;0.10;0.10;;;;;;;;;;4967977;28;20069;-79
2023/04/23 11:27:58;;;;;;;0.10;0.10;;;;;;;;;;4963909;28;20035;-78
2023/04/23 11:30:49;;;;;;;0.10;0.10;;;;;;;;;;4965243;28;20046;-77
2023/04/23 11:33:36;;;;;;;0.10;0.10;;;;;;;;;;4965489;28;20216;-79
2023/04/23 11:36:24;;;;;;;0.10;0.10;;;;;;;;;;4953576;28;20129;-77
2023/04/23 11:39:11;;;;;;;0.10;0.10;;;;;;;;;;4966792;28;20098;-78
2023/04/23 11:42:02;;;;;;;0.20;0.20;;;;;;;;;;4965557;28;20051;-78
2023/04/23 11:44:47;;;;;;;0.10;0.10;;;;;;;;;;4965715;28;20200;-76
2023/04/23 11:47:33;;;;;;;0.20;0.20;;;;;;;;;;4964352;28;20367;-74
2023/04/23 11:50:19;;;;;;;0.20;0.20;;;;;;;;;;4956047;28;20480;-75
2023/04/23 11:53:25;;;;;;;0.10;0.10;;;;;;;;;;4963810;28;20408;-77
2023/04/23 11:56:11;;;;;;;0.10;0.10;;;;;;;;;;4966202;28;20077;-77
2023/04/23 11:58:58;;;;;;;0.10;0.10;;;;;;;;;;4955193;28;20275;-75
2023/04/23 12:01:47;;;;;;;0.30;0.30;;;;;;;;;;4962581;28;20860;-79
2023/04/23 12:04:33;;;;;;;0.30;0.30;;;;;;;;;;4966779;28;20057;-78
2023/04/23 12:07:19;;;;;;;0.20;0.20;;;;;;;;;;4966553;28;20041;-76
2023/04/23 12:10:05;;;;;;;0.20;0.20;;;;;;;;;;4964649;28;20038;-77
2023/04/23 12:12:51;;;;;;;0.20;0.20;;;;;;;;;;4964076;28;20045;-79
2023/04/23 12:15:44;;;;;;;0.25;0.25;;;;;;;;;;4966602;28;20187;-79
2023/04/23 12:18:31;;;;;;;0.30;0.30;;;;;;;;;;4967314;28;20104;-75
2023/04/23 12:21:17;;;;;;;0.30;0.30;;;;;;;;;;4968782;28;20089;-77
2023/04/23 12:24:03;;;;;;;0.20;0.20;;;;;;;;;;4963833;28;20050;-76
2023/04/23 12:26:53;;;;;;;0.10;0.10;;;;;;;;;;4953317;28;20198;-75
2023/04/23 12:29:38;;;;;;;0.20;0.20;;;;;;;;;;4951941;28;20030;-77
2023/04/23 12:32:25;;;;;;;0.20;0.20;;;;;;;;;;4964799;28;20516;-78
2023/04/23 12:35:11;;;;;;;0.20;0.20;;;;;;;;;;4962090;28;20153;-77
2023/04/23 12:37:57;;;;;;;0.20;0.20;;;;;;;;;;4963591;28;20038;-77
2023/04/23 12:40:45;;;;;;;0.20;0.20;;;;;;;;;;4966812;28;20038;-76
2023/04/23 12:43:31;;;;;;;0.10;0.10;;;;;;;;;;4966204;28;20045;-77
2023/04/23 12:46:17;;;;;;;0.17;0.17;;;;;;;;;;4963968;28;20034;-76
2023/04/23 12:49:02;;;;;;;0.20;0.20;;;;;;;;;;4965763;28;20218;-75
2023/04/23 12:51:48;;;;;;;0.20;0.10;;;;;;;;;;4963752;28;20038;-75
2023/04/23 12:54:38;;;;;;;0.22;0.20;;;;;;;;;;4964883;28;20050;-76
2023/04/23 12:57:24;;;;;;;0.10;0.10;;;;;;;;;;4966450;28;20022;-77
2023/04/23 13:00:10;;;;;;;0.20;0.20;;;;;;;;;;4968837;28;20038;-78
2023/04/23 13:02:55;;;;;;;0.10;0.10;;;;;;;;;;4960477;28;20624;-77
2023/04/23 13:05:41;;;;;;;0.10;0.10;;;;;;;;;;4968178;28;20041;-78
2023/04/23 13:08:27;;;;;;;0.10;0.10;;;;;;;;;;4973181;28;20038;-77
2023/04/23 13:11:12;;;;;;;0.10;0.10;;;;;;;;;;4966121;28;20564;-77
2023/04/23 13:13:58;;;;;;;0.10;0.10;;;;;;;;;;4967981;28;20038;-80
2023/04/23 13:16:44;;;;;;;0.20;0.20;;;;;;;;;;4941393;28;20034;-78
2023/04/23 13:19:30;;;;;;;0.10;0.10;;;;;;;;;;4964647;28;20758;-77
2023/04/23 13:22:16;;;;;;;0.13;0.13;;;;;;;;;;4955559;28;20042;-76
2023/04/23 13:25:01;;;;;;;0.20;0.20;;;;;;;;;;4967578;28;20130;-79
2023/04/23 13:27:47;;;;;;;0.20;0.20;;;;;;;;;;4955452;28;20065;-77
2023/04/23 13:30:33;;;;;;;0.20;0.20;;;;;;;;;;4966357;28;20031;-76
2023/04/23 13:33:20;;;;;;;0.20;0.20;;;;;;;;;;4967469;28;20599;-74
2023/04/23 13:36:06;;;;;;;0.10;0.10;;;;;;;;;;4968230;28;20070;-77
2023/04/23 13:38:51;;;;;;;0.20;0.20;;;;;;;;;;4967136;28;20034;-77
2023/04/23 13:41:40;;;;;;;0.20;0.20;;;;;;;;;;4968557;28;20045;-79
2023/04/23 13:44:25;;;;;;;0.20;0.20;;;;;;;;;;4967748;28;20109;-77
2023/04/23 13:47:11;;;;;;;0.10;0.10;;;;;;;;;;4964554;28;20947;-77
2023/04/23 13:50:16;;;;;;;0.10;0.10;;;;;;;;;;4958487;28;20066;-75
2023/04/23 13:53:01;;;;;;;0.13;0.13;;;;;;;;;;4969702;28;20042;-77
2023/04/23 13:55:48;;;;;;;0.10;0.10;;;;;;;;;;4968523;28;20038;-74
2023/04/23 13:58:33;;;;;;;0.10;0.10;;;;;;;;;;4968066;28;20098;-75
2023/04/23 14:01:19;;;;;;;0.10;0.10;;;;;;;;;;4966843;28;20690;-76
2023/04/23 14:04:05;;;;;;;0.10;0.10;;;;;;;;;;4969639;28;20657;-78
2023/04/23 14:06:51;;;;;;;0.20;0.20;;;;;;;;;;4965951;28;20125;-75
2023/04/23 14:09:36;;;;;;;0.10;0.10;;;;;;;;;;4960124;28;20045;-76
2023/04/23 14:12:22;;;;;;;0.20;0.20;;;;;;;;;;4966120;28;20049;-78
2023/04/23 14:15:08;;;;;;;0.20;0.20;;;;;;;;;;4968256;28;20117;-76
2023/04/23 14:17:56;;;;;;;0.15;0.15;;;;;;;;;;4964517;28;20133;-77
2023/04/23 14:20:42;;;;;;;0.10;0.10;;;;;;;;;;4957065;28;20133;-79
2023/04/23 14:23:44;;;;;;;0.10;0.10;;;;;;;;;;4969190;28;20380;-76
2023/04/23 14:26:29;;;;;;;0.10;0.10;;;;;;;;;;4950607;28;20062;-77
2023/04/23 14:29:21;;;;;;;0.10;0.10;;;;;;;;;;4967933;28;20046;-77
2023/04/23 14:32:07;;;;;;;0.20;0.20;;;;;;;;;;4964127;28;20069;-79
2023/04/23 14:35:02;;;;;;;0.20;0.20;;;;;;;;;;4968039;28;20035;-79
2023/04/23 14:37:50;;;;;;;0.20;0.20;;;;;;;;;;4968246;28;20042;-77
2023/04/23 14:40:36;;;;;;;0.10;0.10;;;;;;;;;;4965908;28;20035;-77
2023/04/23 14:43:21;;;;;;;0.10;0.10;;;;;;;;;;4966677;28;20119;-78
2023/04/23 14:46:07;;;;;;;0.10;0.10;;;;;;;;;;4967036;28;20476;-80
2023/04/23 14:48:55;;;;;;;0.17;0.13;;;;;;;;;;4971333;28;20030;-77
2023/04/23 14:51:41;;;;;;;0.10;0.10;;;;;;;;;;4959770;28;20047;-78
2023/04/23 14:54:27;;;;;;;0.20;0.20;;;;;;;;;;4956738;28;21645;-78
2023/04/23 14:57:12;;;;;;;0.20;0.20;;;;;;;;;;4954668;28;20078;-79
2023/04/23 14:59:58;;;;;;;0.10;0.10;;;;;;;;;;4967266;28;20042;-76
2023/04/23 15:02:46;;;;;;;0.20;0.20;;;;;;;;;;4965876;28;20194;-78
2023/04/23 15:05:32;;;;;;;0.10;0.10;;;;;;;;;;4959606;28;20046;-78
2023/04/23 15:08:19;;;;;;;0.13;0.13;;;;;;;;;;4959041;28;20047;-76
2023/04/23 15:11:11;;;;;;;0.10;0.10;;;;;;;;;;4955587;28;20049;-75
2023/04/23 15:14:02;;;;;;;0.10;0.10;;;;;;;;;;4964800;28;20589;-76
2023/04/23 15:16:48;;;;;;;0.10;0.10;;;;;;;;;;4964008;28;20407;-76
2023/04/23 15:19:34;;;;;;;0.10;0.10;;;;;;;;;;4966597;28;20038;-75
2023/04/23 15:22:19;;;;;;;0.10;0.10;;;;;;;;;;4966895;28;20050;-76
2023/04/23 15:25:05;;;;;;;0.15;0.15;;;;;;;;;;4960794;28;20059;-75
2023/04/23 15:27:56;;;;;;;0.10;0.10;;;;;;;;;;4954771;28;20109;-75
2023/04/23 15:30:43;;;;;;;0.20;0.20;;;;;;;;;;4964431;28;20331;-77
2023/04/23 15:33:29;;;;;;;0.20;0.20;;;;;;;;;;4965921;28;20058;-77
2023/04/23 15:36:15;;;;;;;0.10;0.10;;;;;;;;;;4963609;28;20034;-77
2023/04/23 15:39:00;;;;;;;0.10;0.10;;;;;;;;;;4965301;28;20043;-76
2023/04/23 15:41:47;;;;;;;0.10;0.10;;;;;;;;;;4962862;28;20031;-77
2023/04/23 15:44:33;;;;;;;0.10;0.10;;;;;;;;;;4951265;28;20507;-77
2023/04/23 15:47:19;;;;;;;0.10;0.10;;;;;;;;;;4963808;28;20035;-79
2023/04/23 15:50:05;;;;;;;0.10;0.10;;;;;;;;;;4964091;28;20698;-76
2023/04/23 15:52:51;;;;;;;0.10;0.10;;;;;;;;;;4964003;28;20479;-76
2023/04/23 15:55:40;;;;;;;0.10;0.10;;;;;;;;;;4965087;28;20121;-74
2023/04/23 15:58:28;;;;;;;0.10;0.10;;;;;;;;;;4966708;28;20027;-78
2023/04/23 16:01:14;;;;;;;0.10;0.10;;;;;;;;;;4950840;28;20492;-77
2023/04/23 16:04:00;;;;;;;0.10;0.10;;;;;;;;;;4952758;28;20308;-77
2023/04/23 16:06:46;;;;;;;0.10;0.10;;;;;;;;;;4964042;28;20038;-77
2023/04/23 16:09:31;;;;;;;0.10;0.10;;;;;;;;;;4949482;28;20050;-76
2023/04/23 16:12:17;;;;;;;0.10;0.10;;;;;;;;;;4963571;28;20182;-75
2023/04/23 16:15:03;;;;;;;0.10;0.10;;;;;;;;;;4965938;28;20113;-75
2023/04/23 16:17:51;;;;;;;0.10;0.10;;;;;;;;;;4965807;28;20045;-75
2023/04/23 16:20:37;;;;;;;0.10;0.10;;;;;;;;;;4957201;28;20035;-76
2023/04/23 16:23:23;;;;;;;0.10;0.10;;;;;;;;;;4964777;28;20211;-77
2023/04/23 16:26:10;;;;;;;0.10;0.10;;;;;;;;;;4944928;28;20070;-77
2023/04/23 16:28:56;;;;;;;0.10;0.10;;;;;;;;;;4964747;28;20400;-76
2023/04/23 16:31:44;;;;;;;0.10;0.10;;;;;;;;;;4954521;28;20523;-76
2023/04/23 16:34:30;;;;;;;0.10;0.10;;;;;;;;;;4963926;28;20560;-76
2023/04/23 16:37:15;;;;;;;0.10;0.10;;;;;;;;;;4964012;28;20038;-75
2023/04/23 16:40:01;;;;;;;0.10;0.10;;;;;;;;;;4964106;28;20054;-74
2023/04/23 16:42:47;;;;;;;0.17;0.17;;;;;;;;;;4962129;28;20052;-74